This is the latest recevied weather packets stored in our database for station/object KN6RO-14. If no packets are shown the sender has not sent any weather packets the latest 10 day(s).
| Time | Temp. | Humidity | Pressure | Rain* | Wind** | Luminosity | Snow |
|---|---|---|---|---|---|---|---|
| 1777557261 | 15° C | 78% | 1010.2 hPa | 0 mm | - | - | - |
| 1777555462 | 14.44° C | 84% | 1009.6 hPa | 0 mm | - | - | - |
| 1777553662 | 14.44° C | 91% | 1009.2 hPa | 0 mm | - | - | - |
| 1777551862 | 13.89° C | 91% | 1008.7 hPa | 0 mm | - | - | - |
| 1777550062 | 13.89° C | 91% | 1008.3 hPa | 0 mm | - | - | - |
| 1777548262 | 13.89° C | 90% | 1007.2 hPa | 0.25 mm | - | - | - |
| 1777546462 | 14.44° C | 83% | 1008.3 hPa | 0.25 mm | - | - | - |
| 1777544662 | 15° C | 79% | 1008 hPa | 0.25 mm | - | - | - |
| 1777542862 | 14.44° C | 83% | 1008.3 hPa | 0.25 mm | - | - | - |
| 1777541062 | 14.44° C | 80% | 1009.1 hPa | 0 mm | - | - | - |
| 1777539262 | 15° C | 81% | 1008.8 hPa | 0.25 mm | - | - | - |
| 1777537462 | 14.44° C | 89% | 1008.8 hPa | 1.27 mm | - | - | - |
| 1777535662 | 14.44° C | 92% | 1009.1 hPa | 3.56 mm | - | - | - |
| 1777533862 | 15.56° C | 92% | 1009.3 hPa | 2.54 mm | - | - | - |
| 1777532062 | 17.22° C | 86% | 1008.4 hPa | 0 mm | - | - | - |
| 1777530262 | 17.22° C | 84% | 1008.7 hPa | 0 mm | - | - | - |
| 1777528462 | 17.78° C | 82% | 1008.7 hPa | 0 mm | - | - | - |
| 1777526662 | 17.22° C | 83% | 1009.3 hPa | 0 mm | - | - | - |
| 1777524862 | 17.78° C | 82% | 1010 hPa | 0 mm | - | - | - |
| 1777523063 | 18.33° C | 82% | 1010.5 hPa | 0 mm | - | - | - |
| 1777521262 | 18.89° C | 82% | 1010.5 hPa | 0 mm | - | - | - |
| 1777519463 | 18.89° C | 83% | 1010.9 hPa | 0 mm | - | - | - |
| 1777517663 | 19.44° C | 83% | 1010.8 hPa | 0 mm | - | - | - |
| 1777515862 | 19.44° C | 84% | 1011 hPa | 0 mm | - | - | - |
| 1777514063 | 20° C | 83% | 1010.3 hPa | 0 mm | - | - | - |
* Rain latest hour (hover to see other rain measurements)
** Current wind speed in m/s (hover to see current wind gust speed)